createdAt,value
2023-03-28T00:03:00.909Z,99942.60
2023-03-28T00:06:09.982Z,99944.21
2023-03-28T00:09:19.891Z,99936.95
2023-03-28T00:12:48.076Z,99948.67
2023-03-28T00:16:16.129Z,99957.71
2023-03-28T00:19:43.760Z,99978.17
2023-03-28T00:22:51.936Z,99975.19
2023-03-28T00:26:19.932Z,99970.55
2023-03-28T00:29:08.695Z,99975.71
2023-03-28T00:31:57.621Z,99981.31
2023-03-28T00:35:25.483Z,99985.02
2023-03-28T00:38:53.303Z,99989.58
2023-03-28T00:41:42.036Z,99991.15
2023-03-28T00:45:09.998Z,99995.67
2023-03-28T00:48:37.839Z,99996.58
2023-03-28T00:52:05.730Z,99996.59
2023-03-28T00:55:33.639Z,99997.38
2023-03-28T00:59:01.516Z,100002.81
2023-03-28T01:02:29.542Z,100001.09
2023-03-28T01:05:37.984Z,99997.94
2023-03-28T01:08:46.261Z,99998.58
2023-03-28T01:12:14.157Z,99999.80
2023-03-28T01:15:42.176Z,100002.18
2023-03-28T01:19:10.049Z,99999.95
2023-03-28T01:22:37.925Z,99994.94
2023-03-28T01:26:06.120Z,99991.36
2023-03-28T01:29:34.020Z,100000.83
2023-03-28T01:36:33.926Z,99998.46
2023-03-28T01:39:58.938Z,99997.95
2023-03-28T01:43:26.719Z,100013.66
2023-03-28T01:46:54.791Z,100013.97
2023-03-28T01:49:43.708Z,100026.76
2023-03-28T01:53:12.083Z,100019.41
2023-03-28T01:56:21.213Z,100032.30
2023-03-28T01:59:49.140Z,100039.95
2023-03-28T02:03:16.000Z,100045.31
2023-03-28T02:06:46.357Z,100045.71
2023-03-28T02:10:14.506Z,100048.62
2023-03-28T02:13:42.419Z,100054.52
2023-03-28T02:17:09.039Z,100055.63
2023-03-28T02:20:36.340Z,100059.27
2023-03-28T02:24:02.761Z,100074.36
2023-03-28T02:27:33.375Z,100072.51
2023-03-28T02:31:03.823Z,100075.73
2023-03-28T02:34:31.613Z,100077.21
2023-03-28T02:37:59.670Z,100083.36
2023-03-28T02:41:27.527Z,100083.42
2023-03-28T02:44:55.475Z,100085.36
2023-03-28T02:48:23.628Z,100085.77
2023-03-28T02:51:51.430Z,100088.92
2023-03-28T02:55:19.254Z,100096.37
2023-03-28T02:58:50.090Z,100100.07
2023-03-28T03:02:18.009Z,100110.29
2023-03-28T03:05:27.843Z,100111.85
2023-03-28T03:08:55.833Z,100112.51
2023-03-28T03:12:23.631Z,100113.42
2023-03-28T03:15:51.433Z,100112.71
2023-03-28T03:19:19.532Z,100110.05
2023-03-28T03:22:47.338Z,100114.74
2023-03-28T03:26:15.354Z,100111.14
2023-03-28T03:29:26.963Z,100124.70
2023-03-28T03:32:55.174Z,100130.31
2023-03-28T03:36:22.999Z,100124.21
2023-03-28T03:39:50.915Z,100132.39
2023-03-28T03:43:18.561Z,100135.85
2023-03-28T03:46:46.621Z,100135.77
2023-03-28T03:50:14.565Z,100144.00
2023-03-28T03:53:42.197Z,100147.67
2023-03-28T03:57:13.199Z,100150.95
2023-03-28T04:00:41.099Z,100160.22
2023-03-28T04:04:09.209Z,100164.05
2023-03-28T04:07:49.681Z,100173.16
2023-03-28T04:11:17.352Z,100183.40
2023-03-28T04:14:26.864Z,100187.09
2023-03-28T04:17:53.877Z,100190.62
2023-03-28T04:21:21.620Z,100196.95
2023-03-28T04:24:49.538Z,100203.97
2023-03-28T04:28:17.273Z,100210.47
2023-03-28T04:31:45.436Z,100218.23
2023-03-28T04:34:53.508Z,100222.50
2023-03-28T04:38:02.684Z,100228.80
2023-03-28T04:41:30.471Z,100237.09
2023-03-28T04:45:01.198Z,100238.39
2023-03-28T04:48:29.293Z,100244.02
2023-03-28T04:51:37.898Z,100246.58
2023-03-28T04:55:05.812Z,100253.13
2023-03-28T04:58:34.356Z,100257.52
2023-03-28T05:02:02.108Z,100257.53
2023-03-28T05:05:32.597Z,100260.17
2023-03-28T05:09:00.522Z,100265.98
2023-03-28T05:12:28.690Z,100260.98
2023-03-28T05:15:56.948Z,100274.05
2023-03-28T05:19:24.012Z,100276.17
2023-03-28T05:22:57.931Z,100285.39
2023-03-28T05:26:25.962Z,100286.48
2023-03-28T05:29:34.573Z,100289.91
2023-03-28T05:33:02.462Z,100296.79
2023-03-28T05:36:30.309Z,100300.91
2023-03-28T05:40:00.810Z,100303.33
2023-03-28T05:43:28.774Z,100305.63
2023-03-28T05:46:56.519Z,100315.79
2023-03-28T05:50:24.288Z,100322.37
2023-03-28T05:53:52.167Z,100327.65
2023-03-28T05:57:20.782Z,100329.79
2023-03-28T06:00:48.901Z,100332.09
2023-03-28T06:04:16.845Z,100336.45
2023-03-28T06:07:44.391Z,100346.59
2023-03-28T06:11:12.814Z,100349.25
2023-03-28T06:14:43.485Z,100351.23
2023-03-28T06:18:12.997Z,100348.04
2023-03-28T06:21:40.892Z,100355.16
2023-03-28T06:25:08.864Z,100361.50
2023-03-28T06:28:17.720Z,100367.44
2023-03-28T06:31:25.470Z,100369.98
2023-03-28T06:34:34.201Z,100372.20
2023-03-28T06:38:02.274Z,100380.10
2023-03-28T06:41:30.530Z,100388.34
2023-03-28T06:44:58.166Z,100385.92
2023-03-28T06:48:28.591Z,100393.39
2023-03-28T06:52:05.528Z,100400.82
2023-03-28T06:55:13.492Z,100408.56
2023-03-28T06:58:41.188Z,100411.12
2023-03-28T07:01:49.321Z,100417.88
2023-03-28T07:05:17.099Z,100426.73
2023-03-28T07:08:25.531Z,100428.29
2023-03-28T07:11:53.374Z,100431.29
2023-03-28T07:15:01.445Z,100437.61
2023-03-28T07:18:30.626Z,100438.55
2023-03-28T07:22:01.017Z,100436.61
2023-03-28T07:25:29.869Z,100437.90
2023-03-28T07:28:38.615Z,100444.66
2023-03-28T07:32:07.049Z,100443.61
2023-03-28T07:35:35.148Z,100454.30
2023-03-28T07:39:04.133Z,100446.75
2023-03-28T07:42:31.919Z,100449.48
2023-03-28T07:45:40.226Z,100456.02
2023-03-28T07:49:09.054Z,100456.59
2023-03-28T07:52:37.044Z,100471.77
2023-03-28T07:56:05.090Z,100467.58
2023-03-28T07:59:13.878Z,100470.25
2023-03-28T08:02:22.075Z,100473.86
2023-03-28T08:05:12.320Z,100471.35
2023-03-28T08:08:40.136Z,100477.80
2023-03-28T08:11:48.704Z,100487.69
2023-03-28T08:15:16.479Z,100495.90
2023-03-28T08:18:44.401Z,100500.63
2023-03-28T08:22:12.183Z,100501.30
2023-03-28T08:25:30.085Z,100508.27
2023-03-28T08:28:57.879Z,100513.72
2023-03-28T08:32:25.511Z,100508.78
2023-03-28T08:35:54.338Z,100511.70
2023-03-28T08:39:22.313Z,100516.86
2023-03-28T08:42:52.007Z,100511.20
2023-03-28T08:46:20.111Z,100507.53
2023-03-28T08:49:47.753Z,100507.04
2023-03-28T08:53:15.709Z,100509.70
2023-03-28T08:56:45.004Z,100519.91
2023-03-28T09:00:12.895Z,100517.77
2023-03-28T09:03:40.949Z,100524.84
2023-03-28T09:06:50.115Z,100524.91
2023-03-28T09:10:18.001Z,100523.59
2023-03-28T09:13:48.482Z,100526.69
2023-03-28T09:17:16.160Z,100527.04
2023-03-28T09:20:44.051Z,100528.98
2023-03-28T09:24:18.648Z,100532.03
2023-03-28T09:27:26.974Z,100526.92
2023-03-28T09:30:54.834Z,100528.83
2023-03-28T09:33:44.718Z,100532.70
2023-03-28T09:37:12.588Z,100528.04
2023-03-28T09:40:20.964Z,100531.13
2023-03-28T09:43:49.118Z,100536.38
2023-03-28T09:47:31.925Z,100534.59
2023-03-28T09:51:00.533Z,100535.08
2023-03-28T09:54:28.049Z,100534.52
2023-03-28T09:57:17.613Z,100532.45
2023-03-28T10:00:45.270Z,100536.58
2023-03-28T10:03:52.656Z,100533.51
2023-03-28T10:07:20.297Z,100543.59
2023-03-28T10:10:47.624Z,100535.65
2023-03-28T10:14:15.259Z,100537.88
2023-03-28T10:17:43.279Z,100535.80
2023-03-28T10:21:11.082Z,100533.12
2023-03-28T10:24:39.023Z,100529.34
2023-03-28T10:28:06.918Z,100532.31
2023-03-28T10:31:34.892Z,100538.80
2023-03-28T10:34:54.642Z,100541.39
2023-03-28T10:38:22.508Z,100540.66
2023-03-28T10:41:49.434Z,100539.70
2023-03-28T10:45:35.807Z,100546.20
2023-03-28T10:49:03.794Z,100544.94
2023-03-28T10:52:19.385Z,100538.23
2023-03-28T10:55:47.267Z,100541.11
2023-03-28T10:59:17.857Z,100531.39
2023-03-28T11:02:26.741Z,100536.77
2023-03-28T11:06:08.121Z,100542.77
2023-03-28T11:09:22.514Z,100532.48
2023-03-28T11:12:35.865Z,100536.46
2023-03-28T11:15:39.972Z,100543.27
2023-03-28T11:19:08.209Z,100539.88
2023-03-28T11:22:36.177Z,100551.39
2023-03-28T11:25:45.424Z,100545.91
2023-03-28T11:28:33.100Z,100541.60
2023-03-28T11:32:00.770Z,100526.55
2023-03-28T11:35:28.979Z,100522.97
2023-03-28T11:38:56.939Z,100524.20
2023-03-28T11:42:24.780Z,100526.91
2023-03-28T11:45:53.414Z,100528.55
2023-03-28T11:49:20.627Z,100527.63
2023-03-28T11:52:48.602Z,100522.00
2023-03-28T11:56:17.492Z,100505.23
2023-03-28T11:59:26.236Z,100509.98
2023-03-28T12:02:54.642Z,100513.04
2023-03-28T12:06:22.218Z,100523.72
2023-03-28T12:09:12.167Z,100534.26
2023-03-28T12:12:41.023Z,100541.16
2023-03-28T12:15:50.102Z,100542.30
2023-03-28T12:18:40.354Z,100551.08
2023-03-28T12:22:10.841Z,100570.67
2023-03-28T12:25:38.575Z,100581.55
2023-03-28T12:29:06.415Z,100577.94
2023-03-28T12:32:34.003Z,100571.78
2023-03-28T12:36:02.046Z,100565.39
2023-03-28T12:39:30.005Z,100560.77
2023-03-28T12:42:58.777Z,100545.13
2023-03-28T12:46:26.914Z,100540.76
2023-03-28T12:49:35.729Z,100535.75
2023-03-28T12:53:03.774Z,100533.42
2023-03-28T12:56:31.521Z,100527.10
2023-03-28T12:59:59.481Z,100512.43
2023-03-28T13:03:27.512Z,100507.30
2023-03-28T13:06:36.420Z,100502.69
2023-03-28T13:10:04.309Z,100510.38
2023-03-28T13:13:13.365Z,100512.04
2023-03-28T13:16:41.127Z,100525.34
2023-03-28T13:20:10.024Z,100511.33
2023-03-28T13:23:37.975Z,100513.39
2023-03-28T13:26:46.269Z,100524.63
2023-03-28T13:30:14.347Z,100518.52
2023-03-28T13:33:24.350Z,100519.33
2023-03-28T13:36:52.189Z,100517.34
2023-03-28T13:40:20.251Z,100522.23
2023-03-28T13:43:48.582Z,100516.02
2023-03-28T13:47:16.467Z,100519.64
2023-03-28T13:50:45.879Z,100520.04
2023-03-28T13:54:13.659Z,100534.17
2023-03-28T13:57:49.778Z,100549.57
2023-03-28T14:01:17.598Z,100537.39
2023-03-28T14:04:45.438Z,100525.95
2023-03-28T14:08:13.149Z,100549.48
2023-03-28T14:11:40.997Z,100542.38
2023-03-28T14:15:09.017Z,100558.93
2023-03-28T14:18:36.749Z,100550.58
2023-03-28T14:22:04.859Z,100548.61
2023-03-28T14:25:32.652Z,100561.73
2023-03-28T14:29:00.729Z,100569.50
2023-03-28T14:32:28.430Z,100570.13
2023-03-28T14:35:56.453Z,100576.40
2023-03-28T14:39:24.693Z,100589.29
2023-03-28T14:42:52.491Z,100587.22
2023-03-28T14:46:20.333Z,100592.87
2023-03-28T14:49:48.041Z,100600.48
2023-03-28T14:53:15.892Z,100605.83
2023-03-28T14:56:44.523Z,100600.09
2023-03-28T15:00:12.179Z,100599.09
2023-03-28T15:03:21.192Z,100607.66
2023-03-28T15:06:50.481Z,100632.64
2023-03-28T15:10:16.727Z,100653.45
2023-03-28T15:13:45.042Z,100655.16
2023-03-28T15:17:12.887Z,100660.80
2023-03-28T15:20:21.361Z,100692.97
2023-03-28T15:23:49.059Z,100712.83
2023-03-28T15:27:17.017Z,100743.05
2023-03-28T15:30:44.858Z,100754.63
2023-03-28T15:33:53.723Z,100735.33
2023-03-28T15:37:21.768Z,100701.58
2023-03-28T15:40:50.298Z,100694.40
2023-03-28T15:44:18.629Z,100693.61
2023-03-28T15:47:46.572Z,100692.02
2023-03-28T15:51:14.314Z,100691.94
2023-03-28T15:54:42.458Z,100696.72
2023-03-28T15:58:10.229Z,100704.59
2023-03-28T16:01:38.319Z,100709.95
2023-03-28T16:05:07.484Z,100706.83
2023-03-28T16:07:56.293Z,100703.78
2023-03-28T16:11:24.665Z,100713.30
2023-03-28T16:14:51.367Z,100721.73
2023-03-28T16:18:19.362Z,100740.75
2023-03-28T16:21:28.269Z,100719.76
2023-03-28T16:24:56.057Z,100716.39
2023-03-28T16:28:23.684Z,100720.18
2023-03-28T16:31:51.537Z,100718.67
2023-03-28T16:35:19.283Z,100721.15
2023-03-28T16:38:47.283Z,100724.27
2023-03-28T16:42:15.500Z,100734.27
2023-03-28T16:45:43.694Z,100740.47
2023-03-28T16:49:11.761Z,100749.32
2023-03-28T16:52:22.271Z,100760.05
2023-03-28T16:55:50.098Z,100769.99
2023-03-28T16:59:17.837Z,100784.45
2023-03-28T17:02:45.624Z,100811.94
2023-03-28T17:06:13.731Z,100830.52
2023-03-28T17:09:41.486Z,100828.19
2023-03-28T17:13:09.681Z,100838.16
2023-03-28T17:16:37.563Z,100848.01
2023-03-28T17:20:05.637Z,100851.67
2023-03-28T17:23:14.614Z,100849.06
2023-03-28T17:26:42.485Z,100841.27
2023-03-28T17:30:10.178Z,100845.45
2023-03-28T17:33:38.435Z,100864.14
2023-03-28T17:37:06.233Z,100878.48
2023-03-28T17:40:34.022Z,100895.20
2023-03-28T17:44:02.105Z,100903.33
2023-03-28T17:47:31.323Z,100908.52
2023-03-28T17:50:39.011Z,100917.86
2023-03-28T17:54:07.085Z,100917.78
2023-03-28T17:57:35.200Z,100918.75
2023-03-28T18:01:03.208Z,100925.73
2023-03-28T18:04:31.027Z,100923.34
2023-03-28T18:07:58.800Z,100932.41
2023-03-28T18:11:26.731Z,100941.96
2023-03-28T18:14:54.803Z,100944.71
2023-03-28T18:18:03.842Z,100953.20
2023-03-28T18:21:31.740Z,100950.23
2023-03-28T18:24:40.755Z,100930.70
2023-03-28T18:28:08.604Z,100944.86
2023-03-28T18:31:17.519Z,100956.73
2023-03-28T18:34:53.141Z,100969.04
2023-03-28T18:38:01.830Z,100972.92
2023-03-28T18:41:31.742Z,100979.91
2023-03-28T18:44:58.856Z,100978.59
2023-03-28T18:48:27.434Z,100983.70
2023-03-28T18:51:55.410Z,100996.50
2023-03-28T18:55:23.566Z,101006.71
2023-03-28T18:58:51.518Z,101011.22
2023-03-28T19:02:19.391Z,101027.82
2023-03-28T19:05:47.381Z,101037.61
2023-03-28T19:09:15.323Z,101037.57
2023-03-28T19:12:24.384Z,101042.38
2023-03-28T19:15:33.610Z,101046.18
2023-03-28T19:19:01.663Z,101058.11
2023-03-28T19:22:30.205Z,101065.80
2023-03-28T19:25:40.904Z,101068.83
2023-03-28T19:29:09.257Z,101071.70
2023-03-28T19:32:18.513Z,101073.59
2023-03-28T19:35:47.181Z,101070.70
2023-03-28T19:39:14.967Z,101076.41
2023-03-28T19:42:42.903Z,101065.34
2023-03-28T19:46:10.928Z,101062.35
2023-03-28T19:48:59.840Z,101066.48
2023-03-28T19:52:27.792Z,101067.06
2023-03-28T19:55:55.747Z,101059.37
2023-03-28T19:59:05.669Z,101068.23
2023-03-28T20:02:33.599Z,101066.13
2023-03-28T20:05:41.960Z,101073.52
2023-03-28T20:09:09.804Z,101071.12
2023-03-28T20:12:38.798Z,101072.67
2023-03-28T20:16:07.306Z,101074.75
2023-03-28T20:19:35.543Z,101074.56
2023-03-28T20:23:07.153Z,101076.92
2023-03-28T20:26:15.861Z,101078.02
2023-03-28T20:29:43.826Z,101075.07
2023-03-28T20:33:12.842Z,101078.44
2023-03-28T20:36:40.614Z,101076.55
2023-03-28T20:40:08.860Z,101078.58
2023-03-28T20:43:39.506Z,101085.09
2023-03-28T20:47:07.465Z,101088.45
2023-03-28T20:50:35.252Z,101091.17
2023-03-28T20:54:03.030Z,101091.52
2023-03-28T20:57:30.980Z,101094.19
2023-03-28T21:00:59.254Z,101097.06
2023-03-28T21:04:26.865Z,101099.25
2023-03-28T21:07:54.605Z,101100.91
2023-03-28T21:11:22.466Z,101100.70
2023-03-28T21:14:50.328Z,101103.38
2023-03-28T21:18:18.097Z,101102.92
2023-03-28T21:21:26.895Z,101104.89
2023-03-28T21:24:54.712Z,101109.55
2023-03-28T21:28:22.680Z,101107.34
2023-03-28T21:31:50.616Z,101118.02
2023-03-28T21:35:18.421Z,101115.08
2023-03-28T21:38:26.668Z,101117.70
2023-03-28T21:41:54.756Z,101124.74
2023-03-28T21:45:04.369Z,101129.64
2023-03-28T21:48:32.245Z,101127.89
2023-03-28T21:52:00.452Z,101125.70
2023-03-28T21:55:09.069Z,101127.52
2023-03-28T21:58:37.050Z,101132.55
2023-03-28T22:02:05.179Z,101138.76
2023-03-28T22:05:33.110Z,101142.79
2023-03-28T22:09:01.269Z,101142.30
2023-03-28T22:12:11.382Z,101147.61
2023-03-28T22:15:23.263Z,101158.91
2023-03-28T22:18:50.978Z,101156.59
2023-03-28T22:22:18.805Z,101153.02
2023-03-28T22:25:46.667Z,101156.02
2023-03-28T22:29:14.525Z,101162.45
2023-03-28T22:36:04.401Z,101172.38
2023-03-28T22:39:32.234Z,101176.16
2023-03-28T22:43:03.009Z,101178.04
2023-03-28T22:46:30.865Z,101180.67
2023-03-28T22:49:59.566Z,101186.27
2023-03-28T22:53:27.499Z,101193.81
2023-03-28T22:56:17.199Z,101190.40
2023-03-28T23:03:14.600Z,101190.42
2023-03-28T23:06:23.260Z,101192.95
2023-03-28T23:09:32.098Z,101201.87
2023-03-28T23:12:59.981Z,101198.92
2023-03-28T23:16:28.130Z,101191.55
2023-03-28T23:19:55.978Z,101192.20
2023-03-28T23:23:24.089Z,101189.73
2023-03-28T23:26:51.901Z,101186.13
2023-03-28T23:30:19.960Z,101184.73
2023-03-28T23:33:10.913Z,101183.59
2023-03-28T23:36:19.693Z,101178.20
2023-03-28T23:39:47.478Z,101182.61
2023-03-28T23:43:15.539Z,101178.55
2023-03-28T23:46:43.233Z,101188.58
2023-03-28T23:50:11.033Z,101199.30
2023-03-28T23:53:38.685Z,101201.68
2023-03-28T23:57:06.735Z,101205.38
